createdAt,value
2023-10-20T00:01:57.472Z,4.03
2023-10-20T00:04:25.432Z,3.57
2023-10-20T00:06:52.369Z,3.80
2023-10-20T00:09:19.553Z,4.10
2023-10-20T00:11:46.782Z,3.40
2023-10-20T00:14:13.676Z,3.40
2023-10-20T00:16:40.700Z,3.53
2023-10-20T00:19:08.330Z,3.63
2023-10-20T00:21:36.770Z,3.77
2023-10-20T00:24:04.033Z,3.53
2023-10-20T00:26:30.931Z,3.30
2023-10-20T00:28:57.807Z,3.13
2023-10-20T00:31:25.031Z,3.20
2023-10-20T00:33:51.852Z,3.50
2023-10-20T00:36:19.074Z,3.37
2023-10-20T00:38:45.956Z,3.13
2023-10-20T00:41:12.942Z,3.73
2023-10-20T00:43:40.298Z,3.30
2023-10-20T00:46:09.162Z,3.60
2023-10-20T00:48:37.504Z,3.40
2023-10-20T00:51:08.995Z,3.30
2023-10-20T00:53:36.982Z,3.40
2023-10-20T00:56:07.844Z,3.20
2023-10-20T00:58:34.922Z,3.10
2023-10-20T01:01:05.594Z,3.07
2023-10-20T01:03:37.415Z,3.30
2023-10-20T01:06:05.635Z,3.27
2023-10-20T01:08:32.597Z,3.10
2023-10-20T01:10:59.522Z,3.23
2023-10-20T01:13:26.732Z,3.20
2023-10-20T01:15:55.461Z,3.30
2023-10-20T01:18:23.004Z,3.37
2023-10-20T01:20:50.376Z,3.30
2023-10-20T01:23:18.579Z,3.77
2023-10-20T01:25:45.655Z,3.70
2023-10-20T01:28:12.846Z,4.30
2023-10-20T01:30:39.878Z,4.27
2023-10-20T01:33:06.950Z,4.33
2023-10-20T01:35:34.250Z,4.67
2023-10-20T01:38:01.469Z,4.30
2023-10-20T01:40:28.892Z,4.87
2023-10-20T01:42:56.362Z,4.90
2023-10-20T01:45:23.367Z,5.40
2023-10-20T01:47:51.042Z,5.47
2023-10-20T01:50:18.153Z,5.13
2023-10-20T01:52:45.037Z,6.00
2023-10-20T01:55:11.953Z,6.10
2023-10-20T01:57:39.160Z,6.23
2023-10-20T02:00:15.077Z,5.83
2023-10-20T02:02:42.679Z,6.00
2023-10-20T02:05:10.001Z,6.50
2023-10-20T02:07:38.008Z,5.50
2023-10-20T02:10:08.195Z,6.17
2023-10-20T02:12:35.963Z,6.30
2023-10-20T02:15:02.975Z,6.40
2023-10-20T02:17:30.438Z,6.57
2023-10-20T02:19:59.230Z,6.57
2023-10-20T02:22:26.652Z,6.50
2023-10-20T02:24:54.482Z,6.43
2023-10-20T02:27:24.041Z,7.17
2023-10-20T02:29:50.969Z,7.50
2023-10-20T02:32:17.909Z,6.93
2023-10-20T02:34:47.698Z,7.30
2023-10-20T02:37:16.376Z,7.20
2023-10-20T02:39:45.259Z,7.07
2023-10-20T02:42:12.515Z,7.20
2023-10-20T02:44:39.539Z,7.50
2023-10-20T02:47:06.604Z,7.30
2023-10-20T02:49:33.520Z,7.20
2023-10-20T02:52:00.534Z,7.23
2023-10-20T02:54:27.612Z,6.13
2023-10-20T02:56:57.590Z,6.67
2023-10-20T02:59:24.692Z,7.50
2023-10-20T03:01:51.644Z,6.57
2023-10-20T03:04:19.723Z,7.23
2023-10-20T03:06:47.691Z,7.03
2023-10-20T03:09:14.988Z,7.00
2023-10-20T03:11:42.412Z,7.13
2023-10-20T03:14:09.269Z,7.33
2023-10-20T03:16:39.777Z,6.50
2023-10-20T03:19:07.458Z,6.47
2023-10-20T03:21:34.992Z,7.17
2023-10-20T03:24:02.255Z,6.80
2023-10-20T03:26:29.218Z,6.63
2023-10-20T03:28:57.814Z,6.47
2023-10-20T03:31:24.920Z,6.40
2023-10-20T03:33:51.947Z,6.40
2023-10-20T03:36:18.901Z,5.93
2023-10-20T03:38:46.056Z,6.00
2023-10-20T03:41:13.177Z,6.27
2023-10-20T03:43:39.926Z,5.93
2023-10-20T03:46:06.843Z,5.90
2023-10-20T03:48:36.543Z,6.03
2023-10-20T03:51:06.932Z,6.00
2023-10-20T03:53:51.971Z,6.13
2023-10-20T03:56:20.850Z,6.30
2023-10-20T03:58:48.271Z,6.73
2023-10-20T04:01:15.624Z,6.30
2023-10-20T04:03:44.807Z,6.30
2023-10-20T04:06:12.974Z,6.40
2023-10-20T04:08:39.856Z,6.57
2023-10-20T04:11:07.048Z,7.07
2023-10-20T04:13:34.520Z,7.07
2023-10-20T04:16:18.585Z,6.57
2023-10-20T04:18:45.604Z,7.53
2023-10-20T04:21:15.536Z,7.77
2023-10-20T04:23:45.562Z,6.40
2023-10-20T04:26:21.540Z,6.80
2023-10-20T04:28:52.448Z,7.23
2023-10-20T04:31:39.337Z,7.10
2023-10-20T04:34:25.206Z,7.37
2023-10-20T04:37:10.761Z,6.63
2023-10-20T04:39:56.290Z,6.30
2023-10-20T04:42:35.187Z,6.67
2023-10-20T04:45:21.686Z,6.40
2023-10-20T04:48:07.528Z,6.43
2023-10-20T04:50:53.204Z,6.70
2023-10-20T04:53:38.538Z,6.47
2023-10-20T04:56:17.968Z,6.43
2023-10-20T04:59:06.721Z,6.93
2023-10-20T05:01:50.771Z,6.10
2023-10-20T05:04:25.876Z,6.27
2023-10-20T05:07:10.312Z,6.40
2023-10-20T05:09:44.535Z,6.83
2023-10-20T05:12:11.482Z,6.17
2023-10-20T05:14:38.467Z,6.33
2023-10-20T05:17:07.160Z,5.77
2023-10-20T05:19:37.376Z,6.07
2023-10-20T05:22:04.288Z,5.93
2023-10-20T05:24:30.955Z,5.40
2023-10-20T05:26:57.669Z,5.60
2023-10-20T05:29:24.528Z,5.67
2023-10-20T05:31:51.588Z,5.47
2023-10-20T05:34:19.420Z,5.77
2023-10-20T05:36:46.204Z,5.07
2023-10-20T05:39:15.596Z,6.30
2023-10-20T05:41:42.997Z,5.80
2023-10-20T05:44:13.666Z,5.90
2023-10-20T05:46:41.758Z,6.10
2023-10-20T05:49:09.912Z,6.03
2023-10-20T05:51:36.921Z,5.60
2023-10-20T05:54:04.790Z,5.63
2023-10-20T05:56:32.008Z,6.10
2023-10-20T05:58:58.992Z,6.23
2023-10-20T06:01:25.868Z,5.70
2023-10-20T06:03:53.337Z,5.27
2023-10-20T06:06:20.424Z,5.50
2023-10-20T06:08:47.138Z,5.30
2023-10-20T06:11:14.168Z,5.50
2023-10-20T06:13:41.053Z,5.00
2023-10-20T06:16:11.018Z,5.10
2023-10-20T06:18:39.584Z,5.30
2023-10-20T06:21:07.285Z,5.60
2023-10-20T06:23:36.996Z,5.50
2023-10-20T06:26:03.855Z,5.40
2023-10-20T06:28:31.113Z,5.20
2023-10-20T06:31:02.168Z,5.47
2023-10-20T06:33:36.153Z,5.83
2023-10-20T06:36:12.015Z,5.43
2023-10-20T06:38:39.029Z,5.73
2023-10-20T06:41:06.184Z,5.23
2023-10-20T06:43:33.180Z,5.20
2023-10-20T06:46:01.381Z,5.67
2023-10-20T06:48:30.116Z,5.47
2023-10-20T06:50:57.812Z,5.33
2023-10-20T06:53:25.048Z,5.37
2023-10-20T06:56:09.942Z,5.60
2023-10-20T06:58:39.372Z,5.27
2023-10-20T07:01:09.694Z,5.90
2023-10-20T07:03:36.723Z,5.47
2023-10-20T07:06:08.697Z,5.63
2023-10-20T07:08:36.729Z,5.50
2023-10-20T07:11:05.440Z,5.57
2023-10-20T07:13:33.410Z,5.83
2023-10-20T07:16:00.577Z,6.00
2023-10-20T07:18:28.017Z,5.83
2023-10-20T07:20:58.614Z,5.43
2023-10-20T07:23:26.120Z,6.00
2023-10-20T07:28:41.322Z,6.43
2023-10-20T07:31:15.930Z,6.27
2023-10-20T07:33:43.039Z,7.00
2023-10-20T07:36:10.393Z,8.50
2023-10-20T07:38:37.612Z,7.50
2023-10-20T07:41:08.039Z,7.30
2023-10-20T07:43:35.061Z,8.50
2023-10-20T07:46:02.333Z,8.10
2023-10-20T07:48:29.443Z,8.20
2023-10-20T07:51:00.880Z,9.30
2023-10-20T07:53:28.042Z,9.60
2023-10-20T07:55:54.840Z,9.67
2023-10-20T07:58:21.862Z,9.80
2023-10-20T08:00:48.767Z,10.80
2023-10-20T08:03:15.746Z,10.47
2023-10-20T08:05:43.106Z,10.43
2023-10-20T08:08:10.189Z,10.30
2023-10-20T08:10:39.035Z,10.10
2023-10-20T08:13:06.184Z,10.53
2023-10-20T08:15:38.091Z,11.20
2023-10-20T08:18:08.259Z,10.60
2023-10-20T08:20:35.228Z,10.53
2023-10-20T08:23:02.331Z,9.97
2023-10-20T08:25:29.207Z,9.87
2023-10-20T08:27:55.930Z,9.77
2023-10-20T08:30:22.725Z,9.13
2023-10-20T08:32:49.950Z,10.50
2023-10-20T08:35:17.338Z,9.87
2023-10-20T08:37:44.209Z,9.53
2023-10-20T08:40:14.260Z,9.67
2023-10-20T08:42:42.395Z,8.70
2023-10-20T08:45:12.980Z,9.27
2023-10-20T08:47:43.425Z,9.10
2023-10-20T08:50:10.856Z,8.83
2023-10-20T08:52:40.046Z,8.60
2023-10-20T08:55:08.922Z,9.00
2023-10-20T08:57:36.992Z,9.60
2023-10-20T09:00:05.262Z,8.60
2023-10-20T09:02:39.662Z,9.00
2023-10-20T09:05:08.323Z,8.50
2023-10-20T09:07:35.525Z,8.43
2023-10-20T09:10:02.946Z,8.13
2023-10-20T09:12:31.765Z,8.50
2023-10-20T09:14:58.698Z,8.40
2023-10-20T09:17:25.793Z,7.70
2023-10-20T09:19:52.650Z,8.53
2023-10-20T09:22:31.368Z,7.87
2023-10-20T09:24:58.402Z,8.33
2023-10-20T09:27:26.778Z,6.77
2023-10-20T09:29:55.661Z,7.40
2023-10-20T09:32:22.651Z,6.70
2023-10-20T09:34:50.014Z,7.37
2023-10-20T09:37:23.250Z,6.73
2023-10-20T09:40:00.266Z,7.13
2023-10-20T09:42:28.145Z,7.23
2023-10-20T09:45:07.919Z,6.93
2023-10-20T09:47:38.277Z,7.70
2023-10-20T09:50:06.921Z,7.13
2023-10-20T09:52:34.927Z,7.20
2023-10-20T09:55:02.768Z,7.60
2023-10-20T09:57:30.138Z,7.00
2023-10-20T09:59:57.005Z,7.07
2023-10-20T10:02:30.930Z,7.30
2023-10-20T10:04:58.680Z,7.47
2023-10-20T10:07:30.682Z,7.87
2023-10-20T10:09:58.845Z,7.80
2023-10-20T10:12:31.015Z,7.00
2023-10-20T10:15:15.410Z,6.80
2023-10-20T10:17:51.353Z,6.80
2023-10-20T10:20:28.539Z,6.20
2023-10-20T10:23:02.895Z,6.00
2023-10-20T10:25:36.703Z,6.50
2023-10-20T10:28:15.741Z,6.50
2023-10-20T10:30:43.972Z,6.30
2023-10-20T10:33:14.190Z,5.47
2023-10-20T10:35:42.156Z,5.63
2023-10-20T10:38:22.778Z,6.40
2023-10-20T10:40:56.548Z,5.90
2023-10-20T10:43:24.103Z,6.07
2023-10-20T10:45:55.355Z,5.27
2023-10-20T10:48:30.961Z,5.37
2023-10-20T10:50:57.828Z,5.23
2023-10-20T10:53:27.687Z,4.80
2023-10-20T10:55:55.968Z,5.03
2023-10-20T10:58:24.597Z,4.73
2023-10-20T11:00:52.538Z,5.10
2023-10-20T11:03:22.483Z,5.20
2023-10-20T11:05:51.528Z,5.50
2023-10-20T11:08:20.552Z,5.03
2023-10-20T11:10:47.664Z,5.10
2023-10-20T11:13:17.620Z,4.40
2023-10-20T11:15:48.227Z,4.67
2023-10-20T11:18:17.683Z,4.57
2023-10-20T11:20:49.243Z,5.13
2023-10-20T11:23:20.996Z,5.00
2023-10-20T11:25:50.436Z,4.67
2023-10-20T11:28:18.028Z,4.40
2023-10-20T11:30:47.257Z,4.67
2023-10-20T11:33:16.752Z,4.80
2023-10-20T11:35:45.315Z,4.40
2023-10-20T11:38:16.093Z,4.33
2023-10-20T11:40:43.537Z,4.40
2023-10-20T11:43:10.577Z,4.33
2023-10-20T11:45:37.567Z,4.23
2023-10-20T11:48:04.914Z,4.40
2023-10-20T11:50:35.082Z,4.20
2023-10-20T11:53:02.047Z,3.73
2023-10-20T11:55:28.965Z,3.97
2023-10-20T11:57:56.002Z,3.40
2023-10-20T12:00:23.499Z,4.00
2023-10-20T12:02:51.006Z,3.90
2023-10-20T12:05:18.125Z,3.90
2023-10-20T12:07:45.261Z,3.53
2023-10-20T12:10:13.985Z,3.30
2023-10-20T12:13:13.893Z,3.90
2023-10-20T12:15:40.811Z,3.13
2023-10-20T12:18:08.244Z,3.10
2023-10-20T12:20:35.280Z,3.20
2023-10-20T12:23:02.838Z,2.97
2023-10-20T12:25:29.926Z,2.83
2023-10-20T12:27:56.739Z,2.97
2023-10-20T12:30:23.492Z,2.60
2023-10-20T12:32:51.848Z,3.70
2023-10-20T12:35:19.185Z,3.20
2023-10-20T12:37:47.499Z,2.93
2023-10-20T12:40:14.830Z,3.13
2023-10-20T12:42:42.006Z,2.90
2023-10-20T12:45:11.862Z,2.73
2023-10-20T12:47:38.792Z,2.70
2023-10-20T12:50:07.822Z,2.70
2023-10-20T12:52:34.929Z,2.73
2023-10-20T12:55:01.855Z,2.90
2023-10-20T12:57:28.949Z,2.93
2023-10-20T12:59:55.732Z,2.63
2023-10-20T13:02:22.650Z,2.60
2023-10-20T13:04:49.685Z,2.63
2023-10-20T13:07:16.676Z,2.47
2023-10-20T13:09:43.846Z,2.80
2023-10-20T13:12:10.682Z,2.60
2023-10-20T13:14:38.520Z,2.60
2023-10-20T13:17:05.610Z,3.00
2023-10-20T13:19:34.455Z,2.50
2023-10-20T13:22:01.688Z,2.43
2023-10-20T13:24:28.636Z,2.90
2023-10-20T13:26:55.524Z,2.43
2023-10-20T13:29:22.438Z,2.63
2023-10-20T13:31:49.338Z,3.63
2023-10-20T13:34:16.156Z,3.37
2023-10-20T13:36:43.173Z,2.60
2023-10-20T13:41:40.528Z,2.43
2023-10-20T13:44:09.656Z,2.83
2023-10-20T13:46:38.360Z,2.47
2023-10-20T13:49:05.457Z,2.53
2023-10-20T13:51:32.315Z,2.80
2023-10-20T13:53:59.323Z,2.70
2023-10-20T13:56:26.054Z,2.73
2023-10-20T13:58:52.991Z,2.67
2023-10-20T14:01:20.369Z,2.77
2023-10-20T14:03:47.462Z,3.20
2023-10-20T14:06:14.708Z,3.03
2023-10-20T14:08:41.666Z,2.90
2023-10-20T14:11:09.551Z,4.73
2023-10-20T14:13:36.421Z,5.13
2023-10-20T14:16:04.886Z,3.83
2023-10-20T14:18:34.706Z,3.40
2023-10-20T14:21:05.674Z,3.67
2023-10-20T14:23:33.373Z,3.70
2023-10-20T14:26:00.547Z,5.40
2023-10-20T14:28:34.650Z,3.20
2023-10-20T14:31:05.654Z,2.63
2023-10-20T14:33:33.281Z,2.80
2023-10-20T14:36:00.200Z,2.83
2023-10-20T14:38:28.486Z,2.97
2023-10-20T14:41:05.227Z,2.40
2023-10-20T14:43:36.051Z,2.17
2023-10-20T14:46:05.167Z,2.57
2023-10-20T14:48:34.216Z,2.40
2023-10-20T14:51:05.627Z,2.30
2023-10-20T14:53:33.113Z,2.33
2023-10-20T14:55:59.991Z,2.50
2023-10-20T14:58:26.686Z,2.13
2023-10-20T15:00:53.375Z,2.50
2023-10-20T15:03:22.431Z,3.37
2023-10-20T15:05:51.049Z,3.63
2023-10-20T15:08:18.380Z,2.13
2023-10-20T15:10:45.214Z,2.50
2023-10-20T15:13:12.088Z,2.40
2023-10-20T15:15:42.006Z,2.30
2023-10-20T15:18:09.302Z,2.27
2023-10-20T15:20:40.146Z,1.97
2023-10-20T15:23:17.470Z,2.50
2023-10-20T15:25:45.032Z,2.30
2023-10-20T15:28:11.866Z,2.50
2023-10-20T15:30:40.409Z,2.00
2023-10-20T15:33:08.697Z,2.07
2023-10-20T15:35:38.819Z,1.90
2023-10-20T15:38:08.212Z,1.60
2023-10-20T15:40:35.014Z,2.30
2023-10-20T15:43:01.822Z,2.10
2023-10-20T15:45:31.864Z,2.30
2023-10-20T15:48:02.147Z,2.30
2023-10-20T15:50:29.172Z,2.40
2023-10-20T15:52:56.425Z,2.10
2023-10-20T15:55:23.242Z,1.73
2023-10-20T15:57:50.100Z,2.03
2023-10-20T16:00:17.169Z,1.90
2023-10-20T16:02:44.085Z,2.20
2023-10-20T16:05:11.351Z,2.30
2023-10-20T16:07:38.385Z,1.80
2023-10-20T16:10:05.622Z,2.00
2023-10-20T16:12:32.693Z,2.17
2023-10-20T16:15:00.728Z,1.93
2023-10-20T16:17:27.926Z,1.97
2023-10-20T16:19:54.833Z,2.03
2023-10-20T16:22:21.859Z,1.77
2023-10-20T16:24:48.817Z,1.97
2023-10-20T16:27:19.112Z,1.70
2023-10-20T16:29:47.258Z,1.93
2023-10-20T16:32:14.244Z,1.90
2023-10-20T16:34:41.166Z,2.00
2023-10-20T16:37:08.056Z,1.57
2023-10-20T16:39:35.198Z,1.70
2023-10-20T16:42:02.966Z,1.67
2023-10-20T16:44:31.046Z,1.83
2023-10-20T16:47:00.383Z,1.60
2023-10-20T16:49:27.496Z,1.70
2023-10-20T16:51:54.555Z,1.80
2023-10-20T16:54:21.420Z,1.43
2023-10-20T16:56:48.359Z,1.60
2023-10-20T16:59:15.567Z,1.90
2023-10-20T17:01:42.521Z,1.60
2023-10-20T17:04:09.869Z,1.60
2023-10-20T17:06:37.056Z,2.30
2023-10-20T17:09:05.883Z,1.70
2023-10-20T17:11:34.737Z,1.33
2023-10-20T17:14:02.112Z,1.67
2023-10-20T17:16:29.176Z,1.47
2023-10-20T17:18:59.407Z,1.60
2023-10-20T17:21:26.678Z,1.10
2023-10-20T17:23:53.603Z,1.30
2023-10-20T17:26:20.564Z,1.20
2023-10-20T17:28:48.781Z,1.33
2023-10-20T17:31:15.728Z,1.60
2023-10-20T17:33:42.816Z,1.37
2023-10-20T17:36:11.885Z,1.20
2023-10-20T17:38:38.912Z,1.40
2023-10-20T17:41:10.833Z,1.13
2023-10-20T17:43:38.113Z,1.60
2023-10-20T17:46:06.298Z,1.30
2023-10-20T17:48:33.844Z,1.30
2023-10-20T17:51:01.930Z,1.47
2023-10-20T17:53:29.686Z,1.37
2023-10-20T17:55:57.802Z,1.23
2023-10-20T17:58:26.855Z,1.40
2023-10-20T18:00:53.782Z,1.10
2023-10-20T18:03:21.036Z,1.40
2023-10-20T18:05:49.441Z,1.30
2023-10-20T18:08:18.225Z,1.30
2023-10-20T18:10:45.348Z,1.00
2023-10-20T18:13:12.747Z,0.90
2023-10-20T18:15:40.630Z,0.87
2023-10-20T18:18:07.863Z,1.00
2023-10-20T18:20:39.247Z,0.90
2023-10-20T18:23:06.695Z,1.00
2023-10-20T18:25:33.562Z,1.03
2023-10-20T18:28:01.681Z,1.00
2023-10-20T18:30:30.286Z,0.80
2023-10-20T18:32:57.443Z,0.50
2023-10-20T18:35:24.448Z,0.70
2023-10-20T18:37:51.493Z,0.93
2023-10-20T18:40:19.082Z,0.73
2023-10-20T18:42:46.040Z,1.20
2023-10-20T18:45:13.143Z,0.60
2023-10-20T18:47:40.034Z,0.70
2023-10-20T18:50:07.751Z,0.70
2023-10-20T18:52:35.692Z,1.00
2023-10-20T18:55:04.500Z,1.10
2023-10-20T18:57:31.646Z,0.90
2023-10-20T18:59:58.525Z,0.53
2023-10-20T19:02:25.663Z,0.60
2023-10-20T19:04:52.907Z,0.60
2023-10-20T19:07:19.805Z,0.50
2023-10-20T19:09:47.455Z,0.60
2023-10-20T19:12:14.398Z,0.60
2023-10-20T19:14:41.436Z,0.60
2023-10-20T19:17:08.465Z,0.60
2023-10-20T19:19:38.447Z,0.70
2023-10-20T19:22:06.735Z,0.60
2023-10-20T19:24:33.774Z,0.70
2023-10-20T19:27:00.736Z,0.60
2023-10-20T19:29:27.770Z,0.60
2023-10-20T19:31:55.842Z,0.50
2023-10-20T19:34:22.885Z,0.50
2023-10-20T19:36:49.841Z,0.50
2023-10-20T19:39:17.452Z,0.50
2023-10-20T19:41:44.385Z,0.60
2023-10-20T19:44:11.805Z,0.50
2023-10-20T19:46:38.726Z,0.60
2023-10-20T19:49:06.617Z,0.40
2023-10-20T19:51:33.347Z,0.50
2023-10-20T19:54:00.326Z,0.37
2023-10-20T19:56:27.120Z,0.50
2023-10-20T19:58:54.035Z,0.60
2023-10-20T20:01:21.127Z,0.40
2023-10-20T20:03:48.294Z,0.50
2023-10-20T20:06:15.607Z,0.50
2023-10-20T20:08:43.590Z,0.60
2023-10-20T20:11:10.465Z,0.60
2023-10-20T20:13:37.562Z,0.60
2023-10-20T20:16:11.447Z,0.60
2023-10-20T20:18:41.440Z,0.50
2023-10-20T20:21:15.395Z,0.50
2023-10-20T20:23:42.437Z,0.40
2023-10-20T20:26:09.585Z,0.50
2023-10-20T20:28:36.780Z,0.47
2023-10-20T20:31:03.981Z,0.60
2023-10-20T20:33:31.229Z,0.50
2023-10-20T20:35:58.411Z,0.60
2023-10-20T20:38:25.362Z,0.40
2023-10-20T20:40:52.663Z,0.40
2023-10-20T20:43:19.671Z,0.40
2023-10-20T20:45:55.659Z,0.60
2023-10-20T20:48:22.878Z,0.50
2023-10-20T20:50:53.621Z,0.40
2023-10-20T20:53:23.479Z,0.43
2023-10-20T20:55:50.986Z,0.50
2023-10-20T20:58:17.807Z,0.53
2023-10-20T21:00:45.148Z,0.70
2023-10-20T21:03:12.108Z,0.50
2023-10-20T21:05:39.320Z,0.40
2023-10-20T21:08:06.525Z,0.60
2023-10-20T21:10:34.000Z,0.40
2023-10-20T21:13:01.102Z,0.30
2023-10-20T21:15:28.118Z,0.50
2023-10-20T21:17:55.148Z,0.70
2023-10-20T21:20:21.932Z,0.60
2023-10-20T21:22:54.694Z,0.60
2023-10-20T21:25:22.740Z,0.60
2023-10-20T21:27:49.692Z,0.70
2023-10-20T21:30:16.752Z,0.70
2023-10-20T21:32:43.666Z,0.70
2023-10-20T21:35:10.722Z,0.50
2023-10-20T21:37:37.652Z,0.60
2023-10-20T21:40:05.806Z,0.77
2023-10-20T21:42:34.072Z,0.70
2023-10-20T21:45:01.272Z,0.50
2023-10-20T21:47:28.340Z,0.60
2023-10-20T21:49:55.395Z,0.70
2023-10-20T21:52:22.252Z,0.60
2023-10-20T21:54:49.251Z,0.80
2023-10-20T21:57:16.284Z,0.70
2023-10-20T21:59:43.320Z,0.70
2023-10-20T22:02:10.776Z,0.60
2023-10-20T22:04:37.855Z,0.70
2023-10-20T22:07:05.084Z,0.70
2023-10-20T22:09:46.634Z,0.50
2023-10-20T22:12:20.377Z,0.70
2023-10-20T22:14:47.242Z,0.70
2023-10-20T22:17:14.437Z,0.70
2023-10-20T22:19:41.255Z,0.70
2023-10-20T22:22:09.053Z,0.67
2023-10-20T22:24:35.870Z,0.67
2023-10-20T22:27:02.756Z,0.80
2023-10-20T22:29:29.669Z,0.90
2023-10-20T22:31:56.600Z,0.90
2023-10-20T22:34:23.565Z,0.83
2023-10-20T22:36:50.364Z,1.00
2023-10-20T22:39:18.016Z,0.87
2023-10-20T22:41:45.568Z,0.80
2023-10-20T22:44:12.969Z,0.90
2023-10-20T22:46:40.114Z,0.90
2023-10-20T22:49:07.115Z,0.90
2023-10-20T22:51:33.774Z,1.00
2023-10-20T22:54:00.579Z,1.10
2023-10-20T22:56:27.503Z,1.00
2023-10-20T22:58:54.522Z,1.20
2023-10-20T23:01:21.447Z,1.07
2023-10-20T23:03:48.314Z,1.17
2023-10-20T23:06:15.406Z,1.30
2023-10-20T23:08:42.439Z,1.50
2023-10-20T23:11:09.704Z,1.27
2023-10-20T23:13:36.602Z,1.50
2023-10-20T23:16:04.502Z,1.50
2023-10-20T23:18:31.559Z,1.53
2023-10-20T23:20:58.608Z,1.70
2023-10-20T23:23:25.706Z,1.73
2023-10-20T23:25:52.705Z,2.20
2023-10-20T23:28:19.638Z,2.13
2023-10-20T23:30:47.078Z,1.90
2023-10-20T23:33:15.827Z,2.07
2023-10-20T23:35:42.907Z,2.10
2023-10-20T23:38:09.848Z,2.03
2023-10-20T23:40:36.660Z,2.33
2023-10-20T23:43:03.623Z,2.33
2023-10-20T23:45:30.591Z,2.70
2023-10-20T23:47:57.592Z,2.43
2023-10-20T23:50:24.678Z,2.50
2023-10-20T23:52:52.016Z,2.60
2023-10-20T23:55:19.058Z,2.40
2023-10-20T23:57:46.045Z,2.70
